sensor_id;sensor_type;location;lat;lon;timestamp;temperature;humidity
25440;DHT22;13365;52.208;5.488;2023-01-29T00:01:35;10.20;90.70
25440;DHT22;13365;52.208;5.488;2023-01-29T00:04:01;10.30;90.60
25440;DHT22;13365;52.208;5.488;2023-01-29T00:06:26;10.30;90.40
25440;DHT22;13365;52.208;5.488;2023-01-29T00:08:52;10.50;90.30
25440;DHT22;13365;52.208;5.488;2023-01-29T00:11:17;10.50;90.10
25440;DHT22;13365;52.208;5.488;2023-01-29T00:13:44;10.50;90.20
25440;DHT22;13365;52.208;5.488;2023-01-29T00:16:10;10.50;90.20
25440;DHT22;13365;52.208;5.488;2023-01-29T00:18:39;10.60;90.10
25440;DHT22;13365;52.208;5.488;2023-01-29T00:21:16;10.60;89.70
25440;DHT22;13365;52.208;5.488;2023-01-29T00:23:42;10.60;90.20
25440;DHT22;13365;52.208;5.488;2023-01-29T00:26:08;10.60;90.00
25440;DHT22;13365;52.208;5.488;2023-01-29T00:28:34;10.60;89.90
25440;DHT22;13365;52.208;5.488;2023-01-29T00:31:10;10.60;90.00
25440;DHT22;13365;52.208;5.488;2023-01-29T00:33:36;10.70;90.00
25440;DHT22;13365;52.208;5.488;2023-01-29T00:36:06;10.70;89.80
25440;DHT22;13365;52.208;5.488;2023-01-29T00:38:33;10.60;89.80
25440;DHT22;13365;52.208;5.488;2023-01-29T00:41:05;10.70;89.80
25440;DHT22;13365;52.208;5.488;2023-01-29T00:43:49;10.80;89.50
25440;DHT22;13365;52.208;5.488;2023-01-29T00:46:33;10.80;89.50
25440;DHT22;13365;52.208;5.488;2023-01-29T00:48:58;10.80;89.30
25440;DHT22;13365;52.208;5.488;2023-01-29T00:51:24;10.90;89.40
25440;DHT22;13365;52.208;5.488;2023-01-29T00:53:49;10.90;89.30
25440;DHT22;13365;52.208;5.488;2023-01-29T00:56:15;10.70;89.10
25440;DHT22;13365;52.208;5.488;2023-01-29T00:58:40;10.70;88.90
25440;DHT22;13365;52.208;5.488;2023-01-29T01:01:06;10.60;88.70
25440;DHT22;13365;52.208;5.488;2023-01-29T01:03:31;10.70;89.10
25440;DHT22;13365;52.208;5.488;2023-01-29T01:06:08;10.70;89.00
25440;DHT22;13365;52.208;5.488;2023-01-29T01:08:34;10.70;89.00
25440;DHT22;13365;52.208;5.488;2023-01-29T01:11:18;10.60;88.90
25440;DHT22;13365;52.208;5.488;2023-01-29T01:13:44;10.60;89.30
25440;DHT22;13365;52.208;5.488;2023-01-29T01:16:15;10.60;89.50
25440;DHT22;13365;52.208;5.488;2023-01-29T01:18:43;10.50;89.50
25440;DHT22;13365;52.208;5.488;2023-01-29T01:21:08;10.50;89.50
25440;DHT22;13365;52.208;5.488;2023-01-29T01:23:34;10.50;89.60
25440;DHT22;13365;52.208;5.488;2023-01-29T01:26:00;10.40;89.70
25440;DHT22;13365;52.208;5.488;2023-01-29T01:28:27;10.50;90.00
25440;DHT22;13365;52.208;5.488;2023-01-29T01:30:52;10.30;90.00
25440;DHT22;13365;52.208;5.488;2023-01-29T01:33:18;10.30;90.00
25440;DHT22;13365;52.208;5.488;2023-01-29T01:35:43;10.40;90.00
25440;DHT22;13365;52.208;5.488;2023-01-29T01:38:10;10.50;90.00
25440;DHT22;13365;52.208;5.488;2023-01-29T01:40:35;10.60;90.10
25440;DHT22;13365;52.208;5.488;2023-01-29T01:43:01;10.70;90.30
25440;DHT22;13365;52.208;5.488;2023-01-29T01:45:32;10.70;89.50
25440;DHT22;13365;52.208;5.488;2023-01-29T01:48:12;10.70;89.60
25440;DHT22;13365;52.208;5.488;2023-01-29T01:50:48;10.80;89.60
25440;DHT22;13365;52.208;5.488;2023-01-29T01:53:21;10.80;89.30
25440;DHT22;13365;52.208;5.488;2023-01-29T01:55:55;10.70;89.60
25440;DHT22;13365;52.208;5.488;2023-01-29T02:01:22;10.60;89.50
25440;DHT22;13365;52.208;5.488;2023-01-29T02:03:59;10.40;89.60
25440;DHT22;13365;52.208;5.488;2023-01-29T02:06:44;10.30;90.00
25440;DHT22;13365;52.208;5.488;2023-01-29T02:09:38;10.30;90.00
25440;DHT22;13365;52.208;5.488;2023-01-29T02:12:09;10.40;90.10
25440;DHT22;13365;52.208;5.488;2023-01-29T02:14:36;10.30;90.10
25440;DHT22;13365;52.208;5.488;2023-01-29T02:17:08;10.30;90.30
25440;DHT22;13365;52.208;5.488;2023-01-29T02:20:23;10.30;90.40
25440;DHT22;13365;52.208;5.488;2023-01-29T02:28:46;10.40;90.20
25440;DHT22;13365;52.208;5.488;2023-01-29T02:31:26;10.50;90.40
25440;DHT22;13365;52.208;5.488;2023-01-29T02:34:05;10.50;90.30
25440;DHT22;13365;52.208;5.488;2023-01-29T02:37:00;10.60;90.20
25440;DHT22;13365;52.208;5.488;2023-01-29T02:39:39;10.50;90.00
25440;DHT22;13365;52.208;5.488;2023-01-29T02:42:12;10.40;90.10
25440;DHT22;13365;52.208;5.488;2023-01-29T02:47:56;10.60;89.80
25440;DHT22;13365;52.208;5.488;2023-01-29T02:50:50;10.70;89.60
25440;DHT22;13365;52.208;5.488;2023-01-29T02:53:29;10.80;89.60
25440;DHT22;13365;52.208;5.488;2023-01-29T02:56:09;10.70;89.80
25440;DHT22;13365;52.208;5.488;2023-01-29T02:58:42;10.60;89.80
25440;DHT22;13365;52.208;5.488;2023-01-29T03:01:20;10.70;90.00
25440;DHT22;13365;52.208;5.488;2023-01-29T03:03:51;10.80;90.30
25440;DHT22;13365;52.208;5.488;2023-01-29T03:06:21;10.70;89.80
25440;DHT22;13365;52.208;5.488;2023-01-29T03:08:50;10.80;89.80
25440;DHT22;13365;52.208;5.488;2023-01-29T03:11:18;10.70;89.40
25440;DHT22;13365;52.208;5.488;2023-01-29T03:13:57;10.80;89.50
25440;DHT22;13365;52.208;5.488;2023-01-29T03:16:25;10.70;89.50
25440;DHT22;13365;52.208;5.488;2023-01-29T03:19:00;10.70;89.60
25440;DHT22;13365;52.208;5.488;2023-01-29T03:21:38;10.70;89.90
25440;DHT22;13365;52.208;5.488;2023-01-29T03:24:47;10.70;90.00
25440;DHT22;13365;52.208;5.488;2023-01-29T03:27:39;10.60;89.90
25440;DHT22;13365;52.208;5.488;2023-01-29T03:30:27;10.50;90.20
25440;DHT22;13365;52.208;5.488;2023-01-29T03:33:14;10.50;90.20
25440;DHT22;13365;52.208;5.488;2023-01-29T03:35:48;10.40;90.10
25440;DHT22;13365;52.208;5.488;2023-01-29T03:38:17;10.30;90.10
25440;DHT22;13365;52.208;5.488;2023-01-29T03:40:51;10.30;90.30
25440;DHT22;13365;52.208;5.488;2023-01-29T03:43:40;10.30;90.30
25440;DHT22;13365;52.208;5.488;2023-01-29T03:46:18;10.10;90.30
25440;DHT22;13365;52.208;5.488;2023-01-29T03:49:06;10.10;90.50
25440;DHT22;13365;52.208;5.488;2023-01-29T03:51:51;10.10;90.50
25440;DHT22;13365;52.208;5.488;2023-01-29T03:54:31;10.10;90.60
25440;DHT22;13365;52.208;5.488;2023-01-29T03:57:09;10.00;90.60
25440;DHT22;13365;52.208;5.488;2023-01-29T04:00:39;10.00;90.70
25440;DHT22;13365;52.208;5.488;2023-01-29T04:05:48;10.10;90.80
25440;DHT22;13365;52.208;5.488;2023-01-29T04:08:24;10.10;90.60
25440;DHT22;13365;52.208;5.488;2023-01-29T04:10:54;10.10;90.60
25440;DHT22;13365;52.208;5.488;2023-01-29T04:13:22;10.00;90.60
25440;DHT22;13365;52.208;5.488;2023-01-29T04:15:58;9.80;90.90
25440;DHT22;13365;52.208;5.488;2023-01-29T04:18:25;9.70;91.10
25440;DHT22;13365;52.208;5.488;2023-01-29T04:20:51;9.80;91.30
25440;DHT22;13365;52.208;5.488;2023-01-29T04:23:23;9.80;91.40
25440;DHT22;13365;52.208;5.488;2023-01-29T04:26:21;10.00;91.10
25440;DHT22;13365;52.208;5.488;2023-01-29T04:34:27;10.10;90.70
25440;DHT22;13365;52.208;5.488;2023-01-29T04:37:15;10.10;90.80
25440;DHT22;13365;52.208;5.488;2023-01-29T04:39:51;10.10;91.30
25440;DHT22;13365;52.208;5.488;2023-01-29T04:42:25;10.20;90.90
25440;DHT22;13365;52.208;5.488;2023-01-29T04:45:02;10.20;90.70
25440;DHT22;13365;52.208;5.488;2023-01-29T04:53:03;10.20;90.60
25440;DHT22;13365;52.208;5.488;2023-01-29T04:55:44;10.20;90.70
25440;DHT22;13365;52.208;5.488;2023-01-29T04:58:17;10.30;90.60
25440;DHT22;13365;52.208;5.488;2023-01-29T05:00:48;10.10;90.90
25440;DHT22;13365;52.208;5.488;2023-01-29T05:03:15;10.10;90.70
25440;DHT22;13365;52.208;5.488;2023-01-29T05:05:44;10.10;90.70
25440;DHT22;13365;52.208;5.488;2023-01-29T05:08:12;10.00;90.70
25440;DHT22;13365;52.208;5.488;2023-01-29T05:10:38;9.90;90.70
25440;DHT22;13365;52.208;5.488;2023-01-29T05:13:06;9.80;90.80
25440;DHT22;13365;52.208;5.488;2023-01-29T05:15:38;9.80;90.90
25440;DHT22;13365;52.208;5.488;2023-01-29T05:18:05;9.80;90.90
25440;DHT22;13365;52.208;5.488;2023-01-29T05:20:34;9.90;90.80
25440;DHT22;13365;52.208;5.488;2023-01-29T05:23:00;9.90;90.80
25440;DHT22;13365;52.208;5.488;2023-01-29T05:25:31;10.00;90.80
25440;DHT22;13365;52.208;5.488;2023-01-29T05:27:57;9.90;90.80
25440;DHT22;13365;52.208;5.488;2023-01-29T05:30:36;9.90;90.80
25440;DHT22;13365;52.208;5.488;2023-01-29T05:33:02;10.00;90.80
25440;DHT22;13365;52.208;5.488;2023-01-29T05:35:29;10.10;90.60
25440;DHT22;13365;52.208;5.488;2023-01-29T05:37:56;10.00;90.40
25440;DHT22;13365;52.208;5.488;2023-01-29T05:40:22;10.00;90.50
25440;DHT22;13365;52.208;5.488;2023-01-29T05:42:48;10.20;90.50
25440;DHT22;13365;52.208;5.488;2023-01-29T05:45:15;10.10;90.20
25440;DHT22;13365;52.208;5.488;2023-01-29T05:47:41;10.00;90.30
25440;DHT22;13365;52.208;5.488;2023-01-29T05:50:07;9.90;90.30
25440;DHT22;13365;52.208;5.488;2023-01-29T05:52:32;9.90;90.30
25440;DHT22;13365;52.208;5.488;2023-01-29T05:54:58;9.90;90.50
25440;DHT22;13365;52.208;5.488;2023-01-29T05:57:23;9.80;90.40
25440;DHT22;13365;52.208;5.488;2023-01-29T05:59:49;9.90;90.60
25440;DHT22;13365;52.208;5.488;2023-01-29T06:02:14;9.80;90.50
25440;DHT22;13365;52.208;5.488;2023-01-29T06:04:40;9.70;90.60
25440;DHT22;13365;52.208;5.488;2023-01-29T06:07:05;9.70;90.70
25440;DHT22;13365;52.208;5.488;2023-01-29T06:09:31;9.60;90.70
25440;DHT22;13365;52.208;5.488;2023-01-29T06:11:56;9.40;90.70
25440;DHT22;13365;52.208;5.488;2023-01-29T06:14:22;9.30;91.00
25440;DHT22;13365;52.208;5.488;2023-01-29T06:16:47;9.20;91.10
25440;DHT22;13365;52.208;5.488;2023-01-29T06:19:13;9.20;91.30
25440;DHT22;13365;52.208;5.488;2023-01-29T06:21:38;9.30;91.30
25440;DHT22;13365;52.208;5.488;2023-01-29T06:24:04;9.30;91.20
25440;DHT22;13365;52.208;5.488;2023-01-29T06:26:30;9.30;91.10
25440;DHT22;13365;52.208;5.488;2023-01-29T06:28:55;9.20;90.90
25440;DHT22;13365;52.208;5.488;2023-01-29T06:31:21;9.30;91.20
25440;DHT22;13365;52.208;5.488;2023-01-29T06:33:46;9.20;91.10
25440;DHT22;13365;52.208;5.488;2023-01-29T06:36:12;9.20;91.20
25440;DHT22;13365;52.208;5.488;2023-01-29T06:38:37;9.10;91.20
25440;DHT22;13365;52.208;5.488;2023-01-29T06:41:11;8.90;91.20
25440;DHT22;13365;52.208;5.488;2023-01-29T06:43:37;8.80;91.80
25440;DHT22;13365;52.208;5.488;2023-01-29T06:46:06;8.80;91.80
25440;DHT22;13365;52.208;5.488;2023-01-29T06:48:32;8.70;91.70
25440;DHT22;13365;52.208;5.488;2023-01-29T06:51:04;8.70;91.80
25440;DHT22;13365;52.208;5.488;2023-01-29T06:53:30;8.90;91.80
25440;DHT22;13365;52.208;5.488;2023-01-29T06:55:55;8.90;91.60
25440;DHT22;13365;52.208;5.488;2023-01-29T06:58:21;8.90;91.50
25440;DHT22;13365;52.208;5.488;2023-01-29T07:00:47;9.00;91.60
25440;DHT22;13365;52.208;5.488;2023-01-29T07:03:13;9.00;91.70
25440;DHT22;13365;52.208;5.488;2023-01-29T07:05:38;9.00;91.40
25440;DHT22;13365;52.208;5.488;2023-01-29T07:08:04;9.20;91.30
25440;DHT22;13365;52.208;5.488;2023-01-29T07:10:30;9.30;91.30
25440;DHT22;13365;52.208;5.488;2023-01-29T07:12:58;9.30;91.10
25440;DHT22;13365;52.208;5.488;2023-01-29T07:15:24;9.30;90.90
25440;DHT22;13365;52.208;5.488;2023-01-29T07:18:02;9.30;90.80
25440;DHT22;13365;52.208;5.488;2023-01-29T07:20:30;9.10;90.90
25440;DHT22;13365;52.208;5.488;2023-01-29T07:22:56;9.00;91.10
25440;DHT22;13365;52.208;5.488;2023-01-29T07:25:22;8.80;91.30
25440;DHT22;13365;52.208;5.488;2023-01-29T07:27:48;8.70;91.40
25440;DHT22;13365;52.208;5.488;2023-01-29T07:30:14;8.70;91.80
25440;DHT22;13365;52.208;5.488;2023-01-29T07:32:40;8.60;91.70
25440;DHT22;13365;52.208;5.488;2023-01-29T07:35:06;8.60;91.80
25440;DHT22;13365;52.208;5.488;2023-01-29T07:37:32;8.80;91.90
25440;DHT22;13365;52.208;5.488;2023-01-29T07:39:57;8.90;91.60
25440;DHT22;13365;52.208;5.488;2023-01-29T07:42:23;8.90;91.40
25440;DHT22;13365;52.208;5.488;2023-01-29T07:44:49;9.00;91.50
25440;DHT22;13365;52.208;5.488;2023-01-29T07:47:14;8.80;91.20
25440;DHT22;13365;52.208;5.488;2023-01-29T07:49:40;8.60;91.40
25440;DHT22;13365;52.208;5.488;2023-01-29T07:52:05;8.70;91.50
25440;DHT22;13365;52.208;5.488;2023-01-29T07:54:31;8.60;91.60
25440;DHT22;13365;52.208;5.488;2023-01-29T07:56:56;8.50;91.90
25440;DHT22;13365;52.208;5.488;2023-01-29T07:59:22;8.50;91.90
25440;DHT22;13365;52.208;5.488;2023-01-29T08:01:47;8.60;92.00
25440;DHT22;13365;52.208;5.488;2023-01-29T08:04:13;8.60;91.90
25440;DHT22;13365;52.208;5.488;2023-01-29T08:06:39;8.50;92.10
25440;DHT22;13365;52.208;5.488;2023-01-29T08:09:04;8.60;92.00
25440;DHT22;13365;52.208;5.488;2023-01-29T08:11:30;8.40;91.90
25440;DHT22;13365;52.208;5.488;2023-01-29T08:13:55;8.50;92.00
25440;DHT22;13365;52.208;5.488;2023-01-29T08:16:22;8.50;92.10
25440;DHT22;13365;52.208;5.488;2023-01-29T08:18:47;8.60;92.10
25440;DHT22;13365;52.208;5.488;2023-01-29T08:21:13;8.70;91.80
25440;DHT22;13365;52.208;5.488;2023-01-29T08:23:39;8.80;91.80
25440;DHT22;13365;52.208;5.488;2023-01-29T08:26:06;8.80;91.80
25440;DHT22;13365;52.208;5.488;2023-01-29T08:28:32;8.80;91.80
25440;DHT22;13365;52.208;5.488;2023-01-29T08:30:57;8.80;91.60
25440;DHT22;13365;52.208;5.488;2023-01-29T08:33:23;8.90;91.80
25440;DHT22;13365;52.208;5.488;2023-01-29T08:35:52;9.10;91.70
25440;DHT22;13365;52.208;5.488;2023-01-29T08:38:17;9.10;91.50
25440;DHT22;13365;52.208;5.488;2023-01-29T08:40:43;9.30;91.40
25440;DHT22;13365;52.208;5.488;2023-01-29T08:43:10;9.30;91.30
25440;DHT22;13365;52.208;5.488;2023-01-29T08:45:40;9.40;91.30
25440;DHT22;13365;52.208;5.488;2023-01-29T08:48:07;9.30;91.40
25440;DHT22;13365;52.208;5.488;2023-01-29T08:50:33;9.30;91.20
25440;DHT22;13365;52.208;5.488;2023-01-29T08:53:00;9.30;91.10
25440;DHT22;13365;52.208;5.488;2023-01-29T08:55:26;9.30;91.10
25440;DHT22;13365;52.208;5.488;2023-01-29T08:57:52;9.40;91.10
25440;DHT22;13365;52.208;5.488;2023-01-29T09:00:18;9.50;91.00
25440;DHT22;13365;52.208;5.488;2023-01-29T09:02:44;9.50;90.90
25440;DHT22;13365;52.208;5.488;2023-01-29T09:05:15;9.40;91.10
25440;DHT22;13365;52.208;5.488;2023-01-29T09:07:44;9.30;91.00
25440;DHT22;13365;52.208;5.488;2023-01-29T09:10:10;9.30;91.10
25440;DHT22;13365;52.208;5.488;2023-01-29T09:12:43;9.40;91.10
25440;DHT22;13365;52.208;5.488;2023-01-29T09:15:09;9.50;90.80
25440;DHT22;13365;52.208;5.488;2023-01-29T09:17:35;9.30;91.00
25440;DHT22;13365;52.208;5.488;2023-01-29T09:20:04;9.40;91.10
25440;DHT22;13365;52.208;5.488;2023-01-29T09:22:30;9.30;91.10
25440;DHT22;13365;52.208;5.488;2023-01-29T09:24:56;9.50;91.20
25440;DHT22;13365;52.208;5.488;2023-01-29T09:27:21;9.50;91.20
25440;DHT22;13365;52.208;5.488;2023-01-29T09:29:47;9.60;90.90
25440;DHT22;13365;52.208;5.488;2023-01-29T09:32:13;9.60;90.90
25440;DHT22;13365;52.208;5.488;2023-01-29T09:34:38;9.70;91.00
25440;DHT22;13365;52.208;5.488;2023-01-29T09:37:04;10.00;90.70
25440;DHT22;13365;52.208;5.488;2023-01-29T09:39:29;10.00;90.40
25440;DHT22;13365;52.208;5.488;2023-01-29T09:41:56;10.20;90.30
25440;DHT22;13365;52.208;5.488;2023-01-29T09:47:10;10.30;90.20
25440;DHT22;13365;52.208;5.488;2023-01-29T09:49:37;10.30;90.10
25440;DHT22;13365;52.208;5.488;2023-01-29T09:52:24;10.30;90.00
25440;DHT22;13365;52.208;5.488;2023-01-29T09:55:06;10.20;90.00
25440;DHT22;13365;52.208;5.488;2023-01-29T09:57:49;10.00;90.20
25440;DHT22;13365;52.208;5.488;2023-01-29T10:06:34;10.40;90.10
25440;DHT22;13365;52.208;5.488;2023-01-29T10:19:48;10.50;89.30
25440;DHT22;13365;52.208;5.488;2023-01-29T10:25:03;10.50;89.30
25440;DHT22;13365;52.208;5.488;2023-01-29T10:27:35;10.40;88.90
25440;DHT22;13365;52.208;5.488;2023-01-29T10:30:06;10.30;89.30
25440;DHT22;13365;52.208;5.488;2023-01-29T10:32:35;10.20;89.50
25440;DHT22;13365;52.208;5.488;2023-01-29T10:35:05;10.00;90.00
25440;DHT22;13365;52.208;5.488;2023-01-29T10:37:41;10.00;90.20
25440;DHT22;13365;52.208;5.488;2023-01-29T10:40:37;10.00;90.30
25440;DHT22;13365;52.208;5.488;2023-01-29T10:43:19;9.80;90.70
25440;DHT22;13365;52.208;5.488;2023-01-29T10:48:59;10.00;90.80
25440;DHT22;13365;52.208;5.488;2023-01-29T10:52:06;10.10;90.60
25440;DHT22;13365;52.208;5.488;2023-01-29T10:54:44;10.20;90.30
25440;DHT22;13365;52.208;5.488;2023-01-29T11:02:45;10.00;90.60
25440;DHT22;13365;52.208;5.488;2023-01-29T11:05:18;10.10;90.70
25440;DHT22;13365;52.208;5.488;2023-01-29T11:07:44;10.00;90.40
25440;DHT22;13365;52.208;5.488;2023-01-29T11:10:16;10.20;90.60
25440;DHT22;13365;52.208;5.488;2023-01-29T11:12:44;10.20;90.40
25440;DHT22;13365;52.208;5.488;2023-01-29T11:15:23;10.30;90.40
25440;DHT22;13365;52.208;5.488;2023-01-29T11:18:19;10.40;90.40
25440;DHT22;13365;52.208;5.488;2023-01-29T11:20:45;10.20;90.30
25440;DHT22;13365;52.208;5.488;2023-01-29T11:23:28;10.20;90.60
25440;DHT22;13365;52.208;5.488;2023-01-29T11:25:55;10.20;90.50
25440;DHT22;13365;52.208;5.488;2023-01-29T11:28:35;10.30;90.70
25440;DHT22;13365;52.208;5.488;2023-01-29T11:31:01;10.40;90.50
25440;DHT22;13365;52.208;5.488;2023-01-29T11:33:27;10.50;90.30
25440;DHT22;13365;52.208;5.488;2023-01-29T11:35:53;10.40;90.50
25440;DHT22;13365;52.208;5.488;2023-01-29T11:38:26;10.70;90.30
25440;DHT22;13365;52.208;5.488;2023-01-29T11:40:53;10.70;90.20
25440;DHT22;13365;52.208;5.488;2023-01-29T11:43:29;10.70;90.00
25440;DHT22;13365;52.208;5.488;2023-01-29T11:46:01;10.70;89.70
25440;DHT22;13365;52.208;5.488;2023-01-29T11:48:47;10.50;89.70
25440;DHT22;13365;52.208;5.488;2023-01-29T11:51:26;10.30;90.00
25440;DHT22;13365;52.208;5.488;2023-01-29T11:53:57;10.30;90.50
25440;DHT22;13365;52.208;5.488;2023-01-29T11:56:38;10.30;90.40
25440;DHT22;13365;52.208;5.488;2023-01-29T11:59:05;10.40;90.50
25440;DHT22;13365;52.208;5.488;2023-01-29T12:01:45;10.40;90.60
25440;DHT22;13365;52.208;5.488;2023-01-29T12:04:20;10.50;90.60
25440;DHT22;13365;52.208;5.488;2023-01-29T12:06:48;10.40;90.40
25440;DHT22;13365;52.208;5.488;2023-01-29T12:09:20;10.50;90.60
25440;DHT22;13365;52.208;5.488;2023-01-29T12:11:46;10.50;90.80
25440;DHT22;13365;52.208;5.488;2023-01-29T12:19:33;10.30;91.10
25440;DHT22;13365;52.208;5.488;2023-01-29T12:24:58;10.20;91.70
25440;DHT22;13365;52.208;5.488;2023-01-29T12:27:37;10.30;91.60
25440;DHT22;13365;52.208;5.488;2023-01-29T12:30:21;10.20;91.70
25440;DHT22;13365;52.208;5.488;2023-01-29T12:33:04;10.30;91.70
25440;DHT22;13365;52.208;5.488;2023-01-29T12:35:43;10.40;91.60
25440;DHT22;13365;52.208;5.488;2023-01-29T12:38:20;10.30;91.30
25440;DHT22;13365;52.208;5.488;2023-01-29T12:40:47;10.40;91.30
25440;DHT22;13365;52.208;5.488;2023-01-29T12:43:43;10.40;91.20
25440;DHT22;13365;52.208;5.488;2023-01-29T12:46:30;10.50;91.40
25440;DHT22;13365;52.208;5.488;2023-01-29T12:49:01;10.60;91.00
25440;DHT22;13365;52.208;5.488;2023-01-29T12:51:38;10.40;91.20
25440;DHT22;13365;52.208;5.488;2023-01-29T12:54:09;10.60;91.20
25440;DHT22;13365;52.208;5.488;2023-01-29T12:56:47;10.60;91.20
25440;DHT22;13365;52.208;5.488;2023-01-29T12:59:42;10.40;91.00
25440;DHT22;13365;52.208;5.488;2023-01-29T13:02:29;10.30;91.60
25440;DHT22;13365;52.208;5.488;2023-01-29T13:05:04;10.40;91.50
25440;DHT22;13365;52.208;5.488;2023-01-29T13:07:36;10.20;91.80
25440;DHT22;13365;52.208;5.488;2023-01-29T13:10:16;10.20;91.70
25440;DHT22;13365;52.208;5.488;2023-01-29T13:12:57;10.00;91.90
25440;DHT22;13365;52.208;5.488;2023-01-29T13:15:30;10.00;92.10
25440;DHT22;13365;52.208;5.488;2023-01-29T13:20:56;9.90;92.30
25440;DHT22;13365;52.208;5.488;2023-01-29T13:23:31;9.80;92.50
25440;DHT22;13365;52.208;5.488;2023-01-29T13:25:58;9.80;92.60
25440;DHT22;13365;52.208;5.488;2023-01-29T13:28:25;9.70;93.00
25440;DHT22;13365;52.208;5.488;2023-01-29T13:31:22;9.80;93.10
25440;DHT22;13365;52.208;5.488;2023-01-29T13:36:27;10.10;92.90
25440;DHT22;13365;52.208;5.488;2023-01-29T13:39:06;10.30;93.20
25440;DHT22;13365;52.208;5.488;2023-01-29T13:41:37;10.50;92.70
25440;DHT22;13365;52.208;5.488;2023-01-29T13:44:05;10.80;92.20
25440;DHT22;13365;52.208;5.488;2023-01-29T13:46:32;10.90;91.80
25440;DHT22;13365;52.208;5.488;2023-01-29T13:48:58;10.90;91.70
25440;DHT22;13365;52.208;5.488;2023-01-29T13:51:33;10.80;91.60
25440;DHT22;13365;52.208;5.488;2023-01-29T13:54:01;11.00;91.60
25440;DHT22;13365;52.208;5.488;2023-01-29T13:56:41;11.20;91.50
25440;DHT22;13365;52.208;5.488;2023-01-29T13:59:23;11.20;91.20
25440;DHT22;13365;52.208;5.488;2023-01-29T14:02:21;11.10;91.10
25440;DHT22;13365;52.208;5.488;2023-01-29T14:04:47;11.20;91.30
25440;DHT22;13365;52.208;5.488;2023-01-29T14:07:42;11.20;91.20
25440;DHT22;13365;52.208;5.488;2023-01-29T14:10:19;11.20;90.90
25440;DHT22;13365;52.208;5.488;2023-01-29T14:12:47;11.10;91.00
25440;DHT22;13365;52.208;5.488;2023-01-29T14:15:13;11.00;91.00
25440;DHT22;13365;52.208;5.488;2023-01-29T14:17:57;11.00;91.20
25440;DHT22;13365;52.208;5.488;2023-01-29T14:20:29;10.90;91.40
25440;DHT22;13365;52.208;5.488;2023-01-29T14:22:57;10.90;91.50
25440;DHT22;13365;52.208;5.488;2023-01-29T14:25:29;10.70;91.70
25440;DHT22;13365;52.208;5.488;2023-01-29T14:27:57;10.80;91.70
25440;DHT22;13365;52.208;5.488;2023-01-29T14:30:24;10.80;91.70
25440;DHT22;13365;52.208;5.488;2023-01-29T14:32:50;10.60;91.80
25440;DHT22;13365;52.208;5.488;2023-01-29T14:35:22;10.70;92.00
25440;DHT22;13365;52.208;5.488;2023-01-29T14:37:51;10.80;92.00
25440;DHT22;13365;52.208;5.488;2023-01-29T14:42:44;10.80;91.80
25440;DHT22;13365;52.208;5.488;2023-01-29T14:52:58;10.40;92.40
25440;DHT22;13365;52.208;5.488;2023-01-29T14:55:29;10.60;92.20
25440;DHT22;13365;52.208;5.488;2023-01-29T14:57:56;10.50;92.30
25440;DHT22;13365;52.208;5.488;2023-01-29T15:00:35;10.40;92.20
25440;DHT22;13365;52.208;5.488;2023-01-29T15:03:03;10.60;92.30
25440;DHT22;13365;52.208;5.488;2023-01-29T15:05:37;10.70;92.20
25440;DHT22;13365;52.208;5.488;2023-01-29T15:08:26;10.70;92.30
25440;DHT22;13365;52.208;5.488;2023-01-29T15:10:57;10.70;92.40
25440;DHT22;13365;52.208;5.488;2023-01-29T15:16:26;10.40;92.70
25440;DHT22;13365;52.208;5.488;2023-01-29T15:19:03;10.40;92.80
25440;DHT22;13365;52.208;5.488;2023-01-29T15:21:31;10.30;93.00
25440;DHT22;13365;52.208;5.488;2023-01-29T15:24:05;10.50;93.00
25440;DHT22;13365;52.208;5.488;2023-01-29T15:26:31;10.50;92.60
25440;DHT22;13365;52.208;5.488;2023-01-29T15:28:59;10.30;92.60
25440;DHT22;13365;52.208;5.488;2023-01-29T15:31:25;10.10;93.00
25440;DHT22;13365;52.208;5.488;2023-01-29T15:33:54;9.90;93.60
25440;DHT22;13365;52.208;5.488;2023-01-29T15:36:25;10.10;93.30
25440;DHT22;13365;52.208;5.488;2023-01-29T15:41:39;10.40;93.00
25440;DHT22;13365;52.208;5.488;2023-01-29T15:44:17;10.30;92.80
25440;DHT22;13365;52.208;5.488;2023-01-29T15:46:57;10.40;92.80
25440;DHT22;13365;52.208;5.488;2023-01-29T15:49:35;10.30;92.90
25440;DHT22;13365;52.208;5.488;2023-01-29T15:52:05;10.20;93.10
25440;DHT22;13365;52.208;5.488;2023-01-29T15:54:33;10.20;93.20
25440;DHT22;13365;52.208;5.488;2023-01-29T15:57:00;10.00;93.20
25440;DHT22;13365;52.208;5.488;2023-01-29T15:59:33;9.90;93.70
25440;DHT22;13365;52.208;5.488;2023-01-29T16:04:54;10.00;93.80
25440;DHT22;13365;52.208;5.488;2023-01-29T16:07:20;9.90;93.80
25440;DHT22;13365;52.208;5.488;2023-01-29T16:09:46;9.80;93.80
25440;DHT22;13365;52.208;5.488;2023-01-29T16:12:12;9.90;93.80
25440;DHT22;13365;52.208;5.488;2023-01-29T16:14:39;10.00;94.20
25440;DHT22;13365;52.208;5.488;2023-01-29T16:17:25;10.20;93.90
25440;DHT22;13365;52.208;5.488;2023-01-29T16:19:59;10.10;93.90
25440;DHT22;13365;52.208;5.488;2023-01-29T16:22:28;10.20;93.90
25440;DHT22;13365;52.208;5.488;2023-01-29T16:24:55;10.10;93.90
25440;DHT22;13365;52.208;5.488;2023-01-29T16:27:24;10.10;94.30
25440;DHT22;13365;52.208;5.488;2023-01-29T16:29:50;10.00;94.50
25440;DHT22;13365;52.208;5.488;2023-01-29T16:32:16;10.10;94.80
25440;DHT22;13365;52.208;5.488;2023-01-29T16:34:43;10.00;94.80
25440;DHT22;13365;52.208;5.488;2023-01-29T16:39:48;10.00;95.20
25440;DHT22;13365;52.208;5.488;2023-01-29T16:47:39;9.80;95.30
25440;DHT22;13365;52.208;5.488;2023-01-29T16:55:39;9.40;96.10
25440;DHT22;13365;52.208;5.488;2023-01-29T16:58:17;9.30;96.60
25440;DHT22;13365;52.208;5.488;2023-01-29T17:00:48;9.20;96.80
25440;DHT22;13365;52.208;5.488;2023-01-29T17:03:15;9.30;97.00
25440;DHT22;13365;52.208;5.488;2023-01-29T17:05:42;9.30;97.00
25440;DHT22;13365;52.208;5.488;2023-01-29T17:08:20;9.30;97.00
25440;DHT22;13365;52.208;5.488;2023-01-29T17:10:47;9.40;96.80
25440;DHT22;13365;52.208;5.488;2023-01-29T17:13:35;9.40;96.80
25440;DHT22;13365;52.208;5.488;2023-01-29T17:16:14;9.60;96.60
25440;DHT22;13365;52.208;5.488;2023-01-29T17:18:40;9.70;96.40
25440;DHT22;13365;52.208;5.488;2023-01-29T17:21:05;9.60;96.30
25440;DHT22;13365;52.208;5.488;2023-01-29T17:23:31;9.60;96.40
25440;DHT22;13365;52.208;5.488;2023-01-29T17:25:56;9.50;96.50
25440;DHT22;13365;52.208;5.488;2023-01-29T17:28:23;9.40;96.60
25440;DHT22;13365;52.208;5.488;2023-01-29T17:30:49;9.50;96.60
25440;DHT22;13365;52.208;5.488;2023-01-29T17:33:16;9.40;96.50
25440;DHT22;13365;52.208;5.488;2023-01-29T17:35:43;9.40;96.50
25440;DHT22;13365;52.208;5.488;2023-01-29T17:38:14;9.30;96.70
25440;DHT22;13365;52.208;5.488;2023-01-29T17:40:45;9.40;96.70
25440;DHT22;13365;52.208;5.488;2023-01-29T17:43:11;9.30;96.60
25440;DHT22;13365;52.208;5.488;2023-01-29T17:45:38;9.30;96.70
25440;DHT22;13365;52.208;5.488;2023-01-29T17:48:09;9.20;96.70